Aviation Digital Data Service (ADDS)

Output produced by METARs form (0152 UTC 22 June 2018)
found at http://www.aviationweather.gov/adds/metars/
 
TAF EFJY 212338Z 2200/2224 04005KT 9999 -RA OVC015 
     TEMPO 2200/2206 4000 +SHRA BKN004 SCT030CB 
     PROB30 
     TEMPO 2200/2206 TS 
     BECMG 2206/2208 20015G30KT 
     TEMPO 2209/2224 6000 SHRA BKN013 BKN020CB
       
TAF EFTP 212335Z 2200/2224 08008KT 9999 -RA FEW003 BKN020 
     TEMPO 2200/2204 4000 +RA BKN003 SCT040CB 
     PROB30 2200/2204 TS 
     BECMG 2204/2206 20012G25KT 
     TEMPO 2208/2222 6000 SHRA BKN008 SCT020CB
       
TAF AMD EFKU 220116Z 2201/2224 09008KT 9000 BKN020 
     TEMPO 2202/2206 5000 RA BKN005 
     BECMG 2206/2208 17012KT 
     TEMPO 2212/2220 16014G24KT 7000 -SHRA
       
TAF EFTU 212335Z 2200/2224 18010KT 9999 SCT005 BKN015 
     TEMPO 2200/2218 5000 SHRA BKN005 SCT020CB 
     BECMG 2212/2214 29015G30KT 
     BECMG 2219/2221 24008G18KT